sensor_id;sensor_type;location;lat;lon;timestamp;pressure;altitude;pressure_sealevel;temperature;humidity
77879;BME280;67071;51.144;17.050;2023-03-04T11:58:43;100147.63;;;12.32;47.10
77879;BME280;67071;51.144;17.050;2023-03-04T12:21:31;100131.09;;;9.79;58.61
77879;BME280;67071;51.144;17.050;2023-03-04T12:25:08;100162.34;;;9.73;57.68
77879;BME280;67071;51.144;17.050;2023-03-04T12:42:21;100133.97;;;5.95;73.39
77879;BME280;67071;51.144;17.050;2023-03-04T12:53:42;100118.63;;;5.87;77.02
77879;BME280;67071;51.144;17.050;2023-03-04T12:57:34;100114.38;;;5.82;76.74
77879;BME280;67071;51.144;17.050;2023-03-04T13:01:15;100118.45;;;6.02;75.67
77879;BME280;67071;51.144;17.050;2023-03-04T13:26:44;100119.34;;;6.67;89.84
77879;BME280;67071;51.144;17.050;2023-03-04T13:33:50;100098.98;;;7.56;86.53
77879;BME280;67071;51.144;17.050;2023-03-04T13:40:39;100102.16;;;7.66;76.07
77879;BME280;67071;51.144;17.050;2023-03-04T13:47:43;100097.77;;;8.18;71.31
77879;BME280;67071;51.144;17.050;2023-03-04T13:51:01;100094.00;;;7.75;71.01
77879;BME280;67071;51.144;17.050;2023-03-04T13:58:25;100092.97;;;8.46;71.01
77879;BME280;67071;51.144;17.050;2023-03-04T14:05:30;100096.50;;;7.86;70.64
77879;BME280;67071;51.144;17.050;2023-03-04T14:08:47;100085.81;;;8.04;70.85
77879;BME280;67071;51.144;17.050;2023-03-04T14:12:14;100083.37;;;8.42;73.95
77879;BME280;67071;51.144;17.050;2023-03-04T14:15:34;100073.31;;;8.11;69.92
77879;BME280;67071;51.144;17.050;2023-03-04T14:18:56;100075.11;;;7.93;70.11
77879;BME280;67071;51.144;17.050;2023-03-04T14:25:40;100071.61;;;7.61;69.52
77879;BME280;67071;51.144;17.050;2023-03-04T14:29:22;100067.72;;;7.78;69.22
77879;BME280;67071;51.144;17.050;2023-03-04T14:32:41;100084.64;;;7.71;70.43
77879;BME280;67071;51.144;17.050;2023-03-04T14:35:59;100064.92;;;7.34;69.07
77879;BME280;67071;51.144;17.050;2023-03-04T14:39:17;100061.93;;;7.44;68.89
77879;BME280;67071;51.144;17.050;2023-03-04T14:42:41;100072.85;;;7.62;71.24
77879;BME280;67071;51.144;17.050;2023-03-04T14:46:07;100063.83;;;7.46;68.12
77879;BME280;67071;51.144;17.050;2023-03-04T14:49:33;100070.08;;;7.38;69.21
77879;BME280;67071;51.144;17.050;2023-03-04T14:53:12;100120.69;;;6.91;72.31
77879;BME280;67071;51.144;17.050;2023-03-04T14:56:33;100082.82;;;6.89;74.68
77879;BME280;67071;51.144;17.050;2023-03-04T15:00:14;100074.15;;;6.72;75.81
77879;BME280;67071;51.144;17.050;2023-03-04T15:03:29;100073.24;;;6.39;74.53
77879;BME280;67071;51.144;17.050;2023-03-04T15:06:51;100077.83;;;6.31;74.39
77879;BME280;67071;51.144;17.050;2023-03-04T15:10:14;100065.93;;;6.27;73.89
77879;BME280;67071;51.144;17.050;2023-03-04T15:17:04;100065.59;;;6.31;74.74
77879;BME280;67071;51.144;17.050;2023-03-04T15:20:25;100062.20;;;6.08;72.84
77879;BME280;67071;51.144;17.050;2023-03-04T15:23:44;100064.22;;;6.10;73.27
77879;BME280;67071;51.144;17.050;2023-03-04T15:26:59;100064.41;;;6.14;74.03
77879;BME280;67071;51.144;17.050;2023-03-04T15:30:26;100061.47;;;6.15;73.80
77879;BME280;67071;51.144;17.050;2023-03-04T15:33:46;100055.98;;;6.16;71.77
77879;BME280;67071;51.144;17.050;2023-03-04T15:37:01;100063.33;;;6.12;70.95
77879;BME280;67071;51.144;17.050;2023-03-04T15:40:39;100055.45;;;6.17;70.54
77879;BME280;67071;51.144;17.050;2023-03-04T15:44:00;100060.07;;;6.10;69.82
77879;BME280;67071;51.144;17.050;2023-03-04T15:47:14;100053.56;;;6.06;69.71
77879;BME280;67071;51.144;17.050;2023-03-04T15:50:29;100046.11;;;6.13;70.38
77879;BME280;67071;51.144;17.050;2023-03-04T15:57:29;100041.70;;;6.16;71.34
77879;BME280;67071;51.144;17.050;2023-03-04T16:00:44;100040.91;;;6.15;70.85
77879;BME280;67071;51.144;17.050;2023-03-04T16:03:58;100047.08;;;6.13;69.21
77879;BME280;67071;51.144;17.050;2023-03-04T16:07:22;100047.45;;;6.11;68.56
77879;BME280;67071;51.144;17.050;2023-03-04T16:10:37;100050.78;;;5.99;67.83
77879;BME280;67071;51.144;17.050;2023-03-04T16:14:00;100056.63;;;6.04;68.35
77879;BME280;67071;51.144;17.050;2023-03-04T16:17:15;100058.64;;;6.05;69.56
77879;BME280;67071;51.144;17.050;2023-03-04T16:20:30;100056.47;;;6.02;70.21
77879;BME280;67071;51.144;17.050;2023-03-04T16:23:46;100057.30;;;6.05;71.23
77879;BME280;67071;51.144;17.050;2023-03-04T16:27:02;100058.53;;;6.06;71.80
77879;BME280;67071;51.144;17.050;2023-03-04T16:30:23;100063.25;;;6.07;71.00
77879;BME280;67071;51.144;17.050;2023-03-04T16:33:40;100063.80;;;6.29;73.10
77879;BME280;67071;51.144;17.050;2023-03-04T16:36:57;100068.07;;;6.35;70.31
77879;BME280;67071;51.144;17.050;2023-03-04T16:40:17;100080.53;;;6.41;70.62
77879;BME280;67071;51.144;17.050;2023-03-04T16:43:35;100073.73;;;6.47;69.34
77879;BME280;67071;51.144;17.050;2023-03-04T16:47:04;100088.66;;;6.57;72.37
77879;BME280;67071;51.144;17.050;2023-03-04T16:50:26;100076.24;;;6.67;70.93
77879;BME280;67071;51.144;17.050;2023-03-04T16:53:55;100086.70;;;6.53;69.68
77879;BME280;67071;51.144;17.050;2023-03-04T16:57:22;100092.21;;;6.49;69.35
77879;BME280;67071;51.144;17.050;2023-03-04T17:00:39;100096.65;;;6.50;69.54
77879;BME280;67071;51.144;17.050;2023-03-04T17:03:58;100089.69;;;6.43;69.04
77879;BME280;67071;51.144;17.050;2023-03-04T17:07:12;100096.43;;;6.43;69.75
77879;BME280;67071;51.144;17.050;2023-03-04T17:10:27;100099.53;;;6.24;70.09
77879;BME280;67071;51.144;17.050;2023-03-04T17:13:43;100108.52;;;6.21;73.65
77879;BME280;67071;51.144;17.050;2023-03-04T17:16:59;100109.41;;;5.99;71.86
77879;BME280;67071;51.144;17.050;2023-03-04T17:20:16;100107.84;;;5.93;72.67
77879;BME280;67071;51.144;17.050;2023-03-04T17:23:31;100108.58;;;5.88;73.25
77879;BME280;67071;51.144;17.050;2023-03-04T17:26:48;100109.39;;;5.83;73.49
77879;BME280;67071;51.144;17.050;2023-03-04T17:30:05;100118.95;;;5.74;74.31
77879;BME280;67071;51.144;17.050;2023-03-04T17:33:20;100119.35;;;5.74;75.24
77879;BME280;67071;51.144;17.050;2023-03-04T17:36:35;100113.68;;;5.73;76.18
77879;BME280;67071;51.144;17.050;2023-03-04T17:39:50;100122.66;;;5.70;75.93
77879;BME280;67071;51.144;17.050;2023-03-04T17:43:10;100124.93;;;5.62;75.12
77879;BME280;67071;51.144;17.050;2023-03-04T17:46:27;100114.66;;;5.67;75.73
77879;BME280;67071;51.144;17.050;2023-03-04T17:49:44;100123.29;;;5.61;75.24
77879;BME280;67071;51.144;17.050;2023-03-04T17:52:59;100123.54;;;5.59;76.25
77879;BME280;67071;51.144;17.050;2023-03-04T17:56:13;100132.75;;;5.63;76.01
77879;BME280;67071;51.144;17.050;2023-03-04T17:59:28;100125.04;;;5.53;75.44
77879;BME280;67071;51.144;17.050;2023-03-04T18:02:43;100124.15;;;5.47;75.22
77879;BME280;67071;51.144;17.050;2023-03-04T18:05:57;100125.09;;;5.55;77.42
77879;BME280;67071;51.144;17.050;2023-03-04T18:09:12;100129.48;;;5.53;76.83
77879;BME280;67071;51.144;17.050;2023-03-04T18:12:27;100129.84;;;5.51;75.53
77879;BME280;67071;51.144;17.050;2023-03-04T18:16:02;100130.71;;;5.45;75.05
77879;BME280;67071;51.144;17.050;2023-03-04T18:19:17;100127.41;;;5.41;75.20
77879;BME280;67071;51.144;17.050;2023-03-04T18:22:32;100127.55;;;5.42;75.30
77879;BME280;67071;51.144;17.050;2023-03-04T18:25:47;100133.02;;;5.39;74.97
77879;BME280;67071;51.144;17.050;2023-03-04T18:29:01;100129.73;;;5.43;74.84
77879;BME280;67071;51.144;17.050;2023-03-04T18:32:18;100131.18;;;5.42;74.78
77879;BME280;67071;51.144;17.050;2023-03-04T18:35:33;100133.62;;;5.44;75.29
77879;BME280;67071;51.144;17.050;2023-03-04T18:38:51;100140.84;;;5.41;74.52
77879;BME280;67071;51.144;17.050;2023-03-04T18:42:05;100139.91;;;5.41;74.58
77879;BME280;67071;51.144;17.050;2023-03-04T18:45:21;100144.66;;;5.36;74.70
77879;BME280;67071;51.144;17.050;2023-03-04T18:48:43;100148.02;;;5.43;75.49
77879;BME280;67071;51.144;17.050;2023-03-04T18:52:24;100149.15;;;5.39;74.58
77879;BME280;67071;51.144;17.050;2023-03-04T18:55:39;100150.71;;;5.38;74.60
77879;BME280;67071;51.144;17.050;2023-03-04T18:58:54;100145.69;;;5.41;74.81
77879;BME280;67071;51.144;17.050;2023-03-04T19:02:18;100159.69;;;5.35;74.85
77879;BME280;67071;51.144;17.050;2023-03-04T19:05:38;100157.83;;;5.30;75.12
77879;BME280;67071;51.144;17.050;2023-03-04T19:08:54;100165.72;;;5.28;75.22
77879;BME280;67071;51.144;17.050;2023-03-04T19:12:09;100164.19;;;5.18;72.08
77879;BME280;67071;51.144;17.050;2023-03-04T19:15:25;100168.43;;;5.22;72.91
77879;BME280;67071;51.144;17.050;2023-03-04T19:18:40;100168.29;;;5.29;73.69
77879;BME280;67071;51.144;17.050;2023-03-04T19:21:58;100163.18;;;5.21;71.75
77879;BME280;67071;51.144;17.050;2023-03-04T19:25:21;100169.31;;;5.19;71.69
77879;BME280;67071;51.144;17.050;2023-03-04T19:28:38;100178.09;;;5.07;67.83
77879;BME280;67071;51.144;17.050;2023-03-04T19:31:53;100178.39;;;5.02;65.90
77879;BME280;67071;51.144;17.050;2023-03-04T19:35:08;100175.91;;;4.98;65.03
77879;BME280;67071;51.144;17.050;2023-03-04T19:38:30;100183.05;;;4.92;63.86
77879;BME280;67071;51.144;17.050;2023-03-04T19:41:45;100183.09;;;4.89;63.14
77879;BME280;67071;51.144;17.050;2023-03-04T19:45:02;100191.64;;;4.86;62.64
77879;BME280;67071;51.144;17.050;2023-03-04T19:48:22;100198.58;;;4.90;64.15
77879;BME280;67071;51.144;17.050;2023-03-04T19:51:38;100196.23;;;4.94;65.37
77879;BME280;67071;51.144;17.050;2023-03-04T19:54:52;100198.90;;;4.80;61.74
77879;BME280;67071;51.144;17.050;2023-03-04T19:58:10;100196.05;;;4.66;59.37
77879;BME280;67071;51.144;17.050;2023-03-04T20:01:28;100204.06;;;4.64;58.95
77879;BME280;67071;51.144;17.050;2023-03-04T20:04:43;100200.97;;;4.64;58.98
77879;BME280;67071;51.144;17.050;2023-03-04T20:08:00;100207.66;;;4.70;61.19
77879;BME280;67071;51.144;17.050;2023-03-04T20:11:16;100215.03;;;4.68;61.17
77879;BME280;67071;51.144;17.050;2023-03-04T20:14:34;100213.74;;;4.65;61.75
77879;BME280;67071;51.144;17.050;2023-03-04T20:17:48;100217.01;;;4.61;61.27
77879;BME280;67071;51.144;17.050;2023-03-04T20:21:04;100203.52;;;4.64;61.42
77879;BME280;67071;51.144;17.050;2023-03-04T20:24:22;100204.59;;;4.57;60.38
77879;BME280;67071;51.144;17.050;2023-03-04T20:28:11;100204.37;;;4.53;59.86
77879;BME280;67071;51.144;17.050;2023-03-04T20:31:29;100198.34;;;4.54;59.32
77879;BME280;67071;51.144;17.050;2023-03-04T20:34:46;100202.20;;;4.53;59.78
77879;BME280;67071;51.144;17.050;2023-03-04T20:38:04;100208.14;;;4.55;60.36
77879;BME280;67071;51.144;17.050;2023-03-04T20:41:18;100209.84;;;4.52;60.03
77879;BME280;67071;51.144;17.050;2023-03-04T20:44:34;100209.78;;;4.44;57.74
77879;BME280;67071;51.144;17.050;2023-03-04T20:47:57;100212.30;;;4.37;57.16
77879;BME280;67071;51.144;17.050;2023-03-04T20:51:11;100214.16;;;4.36;57.91
77879;BME280;67071;51.144;17.050;2023-03-04T20:55:02;100212.07;;;4.38;58.97
77879;BME280;67071;51.144;17.050;2023-03-04T20:58:25;100216.45;;;4.36;59.11
77879;BME280;67071;51.144;17.050;2023-03-04T21:01:41;100208.28;;;4.37;58.58
77879;BME280;67071;51.144;17.050;2023-03-04T21:04:56;100207.70;;;4.35;59.60
77879;BME280;67071;51.144;17.050;2023-03-04T21:08:31;100209.80;;;4.33;60.44
77879;BME280;67071;51.144;17.050;2023-03-04T21:11:47;100211.01;;;4.28;59.75
77879;BME280;67071;51.144;17.050;2023-03-04T21:15:04;100211.73;;;4.23;59.76
77879;BME280;67071;51.144;17.050;2023-03-04T21:18:19;100209.80;;;4.27;60.75
77879;BME280;67071;51.144;17.050;2023-03-04T21:21:34;100207.47;;;4.25;60.81
77879;BME280;67071;51.144;17.050;2023-03-04T21:24:48;100200.53;;;4.14;58.70
77879;BME280;67071;51.144;17.050;2023-03-04T21:28:03;100205.93;;;4.17;60.67
77879;BME280;67071;51.144;17.050;2023-03-04T21:31:28;100202.73;;;4.12;60.13
77879;BME280;67071;51.144;17.050;2023-03-04T21:34:45;100201.70;;;4.13;61.78
77879;BME280;67071;51.144;17.050;2023-03-04T21:38:02;100205.34;;;4.09;61.02
77879;BME280;67071;51.144;17.050;2023-03-04T21:41:23;100196.62;;;4.08;61.14
77879;BME280;67071;51.144;17.050;2023-03-04T21:44:38;100208.20;;;4.11;61.72
77879;BME280;67071;51.144;17.050;2023-03-04T21:47:52;100207.52;;;4.10;62.76
77879;BME280;67071;51.144;17.050;2023-03-04T21:51:11;100208.51;;;4.12;63.02
77879;BME280;67071;51.144;17.050;2023-03-04T21:54:26;100212.36;;;4.10;62.61
77879;BME280;67071;51.144;17.050;2023-03-04T21:57:41;100209.02;;;3.94;60.51
77879;BME280;67071;51.144;17.050;2023-03-04T22:00:57;100206.69;;;3.92;61.01
77879;BME280;67071;51.144;17.050;2023-03-04T22:04:20;100206.21;;;3.89;61.53
77879;BME280;67071;51.144;17.050;2023-03-04T22:07:35;100202.42;;;3.88;60.96
77879;BME280;67071;51.144;17.050;2023-03-04T22:10:50;100210.16;;;3.81;60.91
77879;BME280;67071;51.144;17.050;2023-03-04T22:14:05;100202.28;;;3.83;61.01
77879;BME280;67071;51.144;17.050;2023-03-04T22:17:19;100195.49;;;3.78;58.47
77879;BME280;67071;51.144;17.050;2023-03-04T22:20:36;100195.14;;;3.80;59.03
77879;BME280;67071;51.144;17.050;2023-03-04T22:23:56;100200.43;;;3.77;59.67
77879;BME280;67071;51.144;17.050;2023-03-04T22:27:11;100199.27;;;3.79;60.84
77879;BME280;67071;51.144;17.050;2023-03-04T22:30:32;100190.70;;;3.74;59.21
77879;BME280;67071;51.144;17.050;2023-03-04T22:33:47;100195.00;;;3.75;61.32
77879;BME280;67071;51.144;17.050;2023-03-04T22:37:02;100196.27;;;3.72;60.56
77879;BME280;67071;51.144;17.050;2023-03-04T22:40:17;100194.16;;;3.68;58.78
77879;BME280;67071;51.144;17.050;2023-03-04T22:43:31;100194.23;;;3.65;60.20
77879;BME280;67071;51.144;17.050;2023-03-04T22:46:48;100195.81;;;3.69;57.83
77879;BME280;67071;51.144;17.050;2023-03-04T22:50:06;100194.69;;;4.06;58.32
77879;BME280;67071;51.144;17.050;2023-03-04T22:53:22;100200.23;;;4.37;57.35
77879;BME280;67071;51.144;17.050;2023-03-04T22:56:39;100192.55;;;4.60;56.12
77879;BME280;67071;51.144;17.050;2023-03-04T22:59:56;100193.48;;;4.71;55.25
77879;BME280;67071;51.144;17.050;2023-03-04T23:03:12;100201.78;;;4.90;56.76
77879;BME280;67071;51.144;17.050;2023-03-04T23:06:37;100192.55;;;4.91;55.20
77879;BME280;67071;51.144;17.050;2023-03-04T23:09:54;100191.78;;;4.93;54.79
77879;BME280;67071;51.144;17.050;2023-03-04T23:13:10;100197.90;;;4.97;55.84
77879;BME280;67071;51.144;17.050;2023-03-04T23:16:27;100196.31;;;4.79;53.82
77879;BME280;67071;51.144;17.050;2023-03-04T23:19:43;100198.30;;;4.83;55.40
77879;BME280;67071;51.144;17.050;2023-03-04T23:23:09;100189.16;;;4.65;53.71
77879;BME280;67071;51.144;17.050;2023-03-04T23:26:32;100186.20;;;4.52;53.80
77879;BME280;67071;51.144;17.050;2023-03-04T23:29:50;100179.52;;;4.58;53.76
77879;BME280;67071;51.144;17.050;2023-03-04T23:33:07;100184.88;;;4.58;55.56
77879;BME280;67071;51.144;17.050;2023-03-04T23:36:30;100175.39;;;4.67;58.81
77879;BME280;67071;51.144;17.050;2023-03-04T23:39:47;100186.60;;;4.70;57.94
77879;BME280;67071;51.144;17.050;2023-03-04T23:43:04;100183.17;;;4.54;56.60
77879;BME280;67071;51.144;17.050;2023-03-04T23:46:21;100177.06;;;4.50;57.03
77879;BME280;67071;51.144;17.050;2023-03-04T23:49:38;100188.66;;;4.48;57.65
77879;BME280;67071;51.144;17.050;2023-03-04T23:52:54;100186.58;;;4.38;57.49
77879;BME280;67071;51.144;17.050;2023-03-04T23:56:18;100179.53;;;4.35;57.46
77879;BME280;67071;51.144;17.050;2023-03-04T23:59:42;100183.50;;;4.32;58.17
